createdAt,value
2019-03-10T00:00:45.992Z,13.73
2019-03-10T00:03:20.198Z,12.30
2019-03-10T00:05:51.451Z,15.17
2019-03-10T00:08:22.745Z,12.70
2019-03-10T00:10:54.028Z,15.37
2019-03-10T00:13:25.308Z,10.53
2019-03-10T00:15:56.639Z,14.23
2019-03-10T00:18:27.962Z,10.80
2019-03-10T00:20:59.268Z,18.23
2019-03-10T00:23:30.583Z,11.80
2019-03-10T00:26:01.907Z,12.27
2019-03-10T00:28:33.189Z,13.47
2019-03-10T00:31:04.560Z,20.33
2019-03-10T00:33:35.866Z,17.37
2019-03-10T00:36:07.172Z,16.63
2019-03-10T00:39:10.384Z,19.40
2019-03-10T00:42:32.480Z,18.07
2019-03-10T00:45:57.263Z,14.40
2019-03-10T00:49:33.385Z,17.93
2019-03-10T00:52:21.116Z,13.57
2019-03-10T00:54:52.453Z,14.83
2019-03-10T00:57:23.732Z,12.50
2019-03-10T00:59:54.994Z,19.27
2019-03-10T01:02:26.328Z,17.47
2019-03-10T01:04:57.580Z,15.80
2019-03-10T01:07:28.839Z,13.90
2019-03-10T01:10:00.341Z,18.53
2019-03-10T01:12:31.668Z,17.40
2019-03-10T01:15:02.952Z,19.53
2019-03-10T01:17:35.666Z,18.87
2019-03-10T01:20:10.982Z,16.53
2019-03-10T01:22:42.384Z,20.83
2019-03-10T01:25:13.973Z,23.53
2019-03-10T01:27:45.388Z,21.57
2019-03-10T01:30:19.306Z,22.93
2019-03-10T01:34:01.816Z,21.10
2019-03-10T01:36:30.577Z,21.40
2019-03-10T01:39:01.965Z,21.50
2019-03-10T01:41:34.315Z,20.60
2019-03-10T01:44:05.809Z,23.50
2019-03-10T01:46:37.158Z,18.17
2019-03-10T01:49:08.441Z,20.70
2019-03-10T01:51:39.760Z,24.23
2019-03-10T01:54:11.145Z,21.83
2019-03-10T01:56:42.458Z,23.83
2019-03-10T01:59:13.761Z,26.60
2019-03-10T02:01:45.098Z,20.00
2019-03-10T02:04:16.358Z,24.77
2019-03-10T02:06:47.605Z,22.73
2019-03-10T02:09:18.978Z,21.70
2019-03-10T02:11:50.246Z,19.67
2019-03-10T02:14:21.541Z,19.93
2019-03-10T02:16:52.817Z,21.23
2019-03-10T02:19:24.117Z,24.03
2019-03-10T02:21:55.418Z,25.83
2019-03-10T02:24:26.728Z,28.60
2019-03-10T02:26:58.114Z,20.63
2019-03-10T02:29:29.397Z,26.30
2019-03-10T02:32:00.696Z,21.10
2019-03-10T02:34:32.038Z,21.40
2019-03-10T02:37:03.445Z,20.67
2019-03-10T02:39:34.728Z,24.93
2019-03-10T02:42:06.055Z,25.73
2019-03-10T02:44:37.346Z,21.70
2019-03-10T02:47:08.603Z,22.53
2019-03-10T02:49:39.963Z,24.53
2019-03-10T02:52:11.266Z,23.13
2019-03-10T02:54:42.561Z,18.53
2019-03-10T02:57:13.873Z,20.23
2019-03-10T02:59:45.179Z,19.17
2019-03-10T03:02:16.441Z,20.33
2019-03-10T03:04:47.740Z,19.63
2019-03-10T03:07:19.073Z,16.70
2019-03-10T03:09:50.312Z,14.60
2019-03-10T03:12:21.656Z,16.13
2019-03-10T03:14:53.005Z,20.77
2019-03-10T03:17:24.256Z,16.60
2019-03-10T03:19:55.553Z,14.73
2019-03-10T03:22:26.812Z,18.03
2019-03-10T03:24:58.146Z,20.33
2019-03-10T03:27:29.465Z,18.43
2019-03-10T03:30:00.769Z,20.80
2019-03-10T03:32:32.098Z,21.50
2019-03-10T03:35:03.421Z,23.77
2019-03-10T03:37:38.009Z,16.80
2019-03-10T03:40:09.368Z,17.13
2019-03-10T03:42:40.732Z,17.00
2019-03-10T03:45:12.129Z,19.43
2019-03-10T03:47:43.437Z,19.07
2019-03-10T03:50:14.712Z,17.20
2019-03-10T03:52:46.038Z,17.77
2019-03-10T03:55:17.332Z,19.07
2019-03-10T03:57:51.874Z,20.17
2019-03-10T04:00:23.183Z,17.03
2019-03-10T04:02:54.489Z,16.63
2019-03-10T04:05:25.803Z,23.37
2019-03-10T04:07:57.114Z,25.60
2019-03-10T04:10:28.394Z,15.13
2019-03-10T04:12:59.684Z,16.87
2019-03-10T04:15:30.970Z,14.60
2019-03-10T04:18:02.310Z,15.23
2019-03-10T04:20:33.570Z,11.93
2019-03-10T04:23:04.857Z,12.17
2019-03-10T04:25:36.126Z,13.23
2019-03-10T04:28:07.376Z,15.70
2019-03-10T04:30:38.721Z,16.63
2019-03-10T04:33:09.973Z,11.10
2019-03-10T04:35:41.304Z,13.17
2019-03-10T04:38:12.659Z,11.43
2019-03-10T04:40:43.928Z,14.50
2019-03-10T04:43:15.292Z,10.10
2019-03-10T04:45:46.594Z,13.17
2019-03-10T04:48:17.895Z,8.43
2019-03-10T04:50:49.235Z,10.07
2019-03-10T04:53:20.512Z,12.10
2019-03-10T04:56:05.801Z,14.40
2019-03-10T04:58:40.646Z,13.57
2019-03-10T05:01:11.988Z,9.63
2019-03-10T05:03:43.249Z,7.63
2019-03-10T05:06:17.377Z,11.73
2019-03-10T05:08:48.645Z,12.23
2019-03-10T05:11:19.897Z,12.00
2019-03-10T05:13:51.342Z,10.83
2019-03-10T05:16:22.627Z,12.10
2019-03-10T05:18:53.908Z,12.67
2019-03-10T05:21:25.219Z,11.97
2019-03-10T05:23:58.296Z,10.90
2019-03-10T05:26:29.527Z,11.87
2019-03-10T05:29:00.869Z,9.50
2019-03-10T05:31:32.325Z,11.03
2019-03-10T05:34:03.669Z,14.80
2019-03-10T05:36:34.982Z,12.97
2019-03-10T05:39:08.136Z,11.27
2019-03-10T05:41:39.396Z,17.00
2019-03-10T05:44:10.669Z,12.50
2019-03-10T05:46:41.979Z,16.33
2019-03-10T05:49:13.287Z,12.30
2019-03-10T05:51:44.555Z,14.60
2019-03-10T05:54:15.818Z,16.10
2019-03-10T05:56:47.096Z,16.13
2019-03-10T05:59:18.399Z,13.77
2019-03-10T06:01:49.683Z,17.00
2019-03-10T06:04:20.981Z,11.53
2019-03-10T06:06:52.244Z,13.13
2019-03-10T06:09:23.524Z,10.97
2019-03-10T06:11:54.857Z,10.97
2019-03-10T06:14:26.155Z,9.03
2019-03-10T06:16:57.872Z,11.63
2019-03-10T06:19:29.607Z,11.37
2019-03-10T06:22:00.926Z,9.60
2019-03-10T06:24:32.350Z,8.93
2019-03-10T06:27:04.338Z,11.57
2019-03-10T06:29:35.643Z,7.80
2019-03-10T06:32:06.933Z,9.63
2019-03-10T06:34:38.274Z,7.17
2019-03-10T06:37:09.627Z,3.03
2019-03-10T06:39:40.953Z,4.07
2019-03-10T06:42:12.270Z,4.57
2019-03-10T06:44:43.541Z,6.63
2019-03-10T06:47:14.815Z,4.97
2019-03-10T06:49:46.068Z,8.30
2019-03-10T06:52:17.328Z,5.57
2019-03-10T06:54:48.619Z,6.53
2019-03-10T06:57:19.932Z,5.07
2019-03-10T06:59:51.189Z,6.20
2019-03-10T07:02:22.467Z,8.70
2019-03-10T07:04:53.774Z,6.10
2019-03-10T07:07:25.018Z,8.23
2019-03-10T07:09:56.319Z,7.07
2019-03-10T07:12:27.644Z,5.43
2019-03-10T07:14:58.932Z,6.33
2019-03-10T07:17:30.202Z,5.37
2019-03-10T07:20:01.527Z,5.10
2019-03-10T07:22:32.766Z,5.63
2019-03-10T07:25:04.093Z,4.37
2019-03-10T07:27:42.337Z,3.87
2019-03-10T07:30:31.238Z,6.60
2019-03-10T07:33:14.501Z,6.37
2019-03-10T07:36:10.753Z,3.70
2019-03-10T07:39:15.790Z,7.00
2019-03-10T07:42:06.018Z,6.23
2019-03-10T07:44:47.739Z,5.13
2019-03-10T07:47:28.947Z,7.57
2019-03-10T07:50:22.075Z,5.50
2019-03-10T07:53:21.091Z,3.20
2019-03-10T07:55:58.107Z,4.00
2019-03-10T07:58:51.090Z,5.17
2019-03-10T08:01:41.222Z,3.83
2019-03-10T08:04:31.408Z,6.10
2019-03-10T08:07:19.966Z,5.73
2019-03-10T08:10:10.145Z,5.07
2019-03-10T08:13:01.851Z,5.40
2019-03-10T08:15:52.022Z,4.67
2019-03-10T08:18:40.744Z,3.87
2019-03-10T08:21:45.827Z,2.80
2019-03-10T08:24:34.715Z,3.80
2019-03-10T08:27:22.259Z,3.60
2019-03-10T08:30:07.648Z,4.30
2019-03-10T08:32:55.284Z,3.67
2019-03-10T08:35:40.794Z,3.00
2019-03-10T08:38:29.490Z,3.53
2019-03-10T08:41:13.933Z,1.10
2019-03-10T08:43:58.566Z,3.47
2019-03-10T08:46:40.433Z,3.70
2019-03-10T08:49:44.437Z,3.70
2019-03-10T08:52:14.522Z,2.73
2019-03-10T08:55:05.537Z,2.40
2019-03-10T08:57:54.151Z,2.47
2019-03-10T09:00:47.136Z,2.87
2019-03-10T09:03:37.284Z,1.50
2019-03-10T09:06:25.910Z,2.40
2019-03-10T09:09:05.447Z,1.40
2019-03-10T09:12:01.468Z,1.97
2019-03-10T09:14:44.893Z,2.10
2019-03-10T09:17:33.526Z,1.90
2019-03-10T09:20:32.951Z,2.17
2019-03-10T09:23:26.126Z,1.57
2019-03-10T09:26:19.128Z,2.10
2019-03-10T09:29:12.127Z,1.70
2019-03-10T09:32:02.749Z,1.87
2019-03-10T09:34:44.655Z,1.90
2019-03-10T09:37:27.914Z,3.77
2019-03-10T09:40:12.281Z,2.37
2019-03-10T09:43:00.969Z,1.43
2019-03-10T09:45:53.953Z,2.67
2019-03-10T09:48:31.276Z,1.40
2019-03-10T09:51:12.113Z,2.07
2019-03-10T09:54:03.059Z,3.67
2019-03-10T09:57:02.461Z,4.87
2019-03-10T09:59:43.024Z,2.20
2019-03-10T10:02:31.687Z,2.30
2019-03-10T10:05:22.236Z,3.37
2019-03-10T10:08:24.382Z,3.07
2019-03-10T10:11:13.002Z,3.87
2019-03-10T10:13:56.134Z,4.73
2019-03-10T10:17:01.474Z,3.63
2019-03-10T10:19:54.742Z,4.87
2019-03-10T10:22:41.125Z,4.77
2019-03-10T10:25:31.569Z,4.87
2019-03-10T10:28:31.039Z,3.80
2019-03-10T10:31:19.847Z,4.07
2019-03-10T10:34:07.136Z,3.37
2019-03-10T10:36:57.326Z,4.03
2019-03-10T10:40:05.665Z,3.50
2019-03-10T10:42:51.338Z,2.83
2019-03-10T10:45:30.902Z,3.00
2019-03-10T10:48:24.436Z,5.87
2019-03-10T10:51:10.652Z,4.33
2019-03-10T10:54:03.629Z,2.93
2019-03-10T10:56:42.048Z,5.73
2019-03-10T10:59:29.159Z,3.70
2019-03-10T11:02:19.359Z,4.87
2019-03-10T11:05:15.616Z,6.03
2019-03-10T11:08:04.500Z,3.47
2019-03-10T11:11:03.446Z,5.03
2019-03-10T11:13:52.253Z,6.53
2019-03-10T11:16:45.692Z,7.87
2019-03-10T11:19:35.574Z,7.27
2019-03-10T11:22:24.366Z,5.67
2019-03-10T11:25:28.668Z,6.70
2019-03-10T11:28:18.806Z,8.07
2019-03-10T11:31:06.013Z,7.57
2019-03-10T11:33:54.860Z,8.63
2019-03-10T11:36:34.010Z,10.53
2019-03-10T11:39:22.545Z,8.07
2019-03-10T11:42:12.555Z,11.53
2019-03-10T11:45:14.707Z,8.63
2019-03-10T11:48:01.786Z,8.87
2019-03-10T11:50:57.486Z,5.87
2019-03-10T11:53:44.235Z,7.47
2019-03-10T11:56:46.323Z,10.87
2019-03-10T11:59:24.812Z,6.87
2019-03-10T12:02:15.996Z,7.63
2019-03-10T12:05:05.953Z,8.73
2019-03-10T12:07:56.084Z,11.23
2019-03-10T12:10:27.440Z,10.93
2019-03-10T12:12:58.714Z,11.17
2019-03-10T12:15:29.992Z,9.63
2019-03-10T12:18:01.273Z,11.33
2019-03-10T12:20:32.524Z,11.53
2019-03-10T12:23:03.816Z,10.80
2019-03-10T12:25:35.134Z,12.53
2019-03-10T12:28:06.366Z,11.20
2019-03-10T12:30:37.663Z,15.07
2019-03-10T12:33:09.015Z,10.17
2019-03-10T12:35:40.336Z,11.63
2019-03-10T12:38:11.614Z,12.90
2019-03-10T12:40:42.919Z,12.33
2019-03-10T12:43:14.171Z,14.27
2019-03-10T12:45:45.518Z,15.40
2019-03-10T12:48:16.785Z,9.67
2019-03-10T12:50:48.113Z,12.03
2019-03-10T12:53:19.422Z,10.67
2019-03-10T12:55:50.677Z,11.90
2019-03-10T12:58:21.974Z,9.27
2019-03-10T13:00:53.294Z,9.37
2019-03-10T13:03:24.647Z,6.40
2019-03-10T13:05:55.922Z,7.60
2019-03-10T13:08:27.285Z,8.43
2019-03-10T13:10:58.589Z,4.33
2019-03-10T13:13:29.873Z,5.73
2019-03-10T13:16:01.195Z,5.20
2019-03-10T13:18:32.464Z,4.60
2019-03-10T13:21:03.747Z,5.47
2019-03-10T13:23:34.987Z,3.03
2019-03-10T13:26:06.278Z,3.50
2019-03-10T13:28:37.541Z,3.57
2019-03-10T13:31:08.814Z,8.30
2019-03-10T13:33:40.120Z,9.53
2019-03-10T13:36:11.460Z,8.40
2019-03-10T13:38:42.799Z,10.30
2019-03-10T13:41:14.080Z,7.60
2019-03-10T13:43:45.416Z,9.13
2019-03-10T13:46:16.721Z,13.97
2019-03-10T13:48:47.988Z,8.63
2019-03-10T13:51:19.301Z,10.37
2019-03-10T13:53:50.635Z,13.47
2019-03-10T13:56:21.934Z,10.17
2019-03-10T13:58:53.212Z,6.20
2019-03-10T14:01:24.501Z,12.53
2019-03-10T14:03:55.748Z,7.13
2019-03-10T14:06:27.033Z,4.27
2019-03-10T14:08:58.380Z,4.43
2019-03-10T14:11:29.710Z,3.63
2019-03-10T14:14:01.033Z,3.37
2019-03-10T14:16:32.358Z,4.47
2019-03-10T14:19:03.637Z,6.17
2019-03-10T14:21:34.979Z,6.87
2019-03-10T14:24:06.270Z,6.17
2019-03-10T14:26:37.572Z,4.73
2019-03-10T14:29:08.829Z,5.03
2019-03-10T14:31:40.147Z,6.47
2019-03-10T14:34:11.454Z,6.27
2019-03-10T14:36:42.758Z,3.13
2019-03-10T14:39:14.083Z,7.60
2019-03-10T14:41:45.346Z,8.30
2019-03-10T14:44:16.693Z,4.03
2019-03-10T14:46:49.543Z,4.00
2019-03-10T14:49:23.436Z,5.20
2019-03-10T14:51:53.838Z,3.23
2019-03-10T14:54:25.112Z,3.47
2019-03-10T14:56:56.396Z,3.67
2019-03-10T14:59:27.685Z,3.30
2019-03-10T15:02:00.337Z,5.43
2019-03-10T15:04:31.833Z,4.80
2019-03-10T15:07:03.420Z,4.20
2019-03-10T15:09:34.682Z,4.50
2019-03-10T15:12:05.999Z,2.70
2019-03-10T15:14:37.278Z,4.73
2019-03-10T15:17:08.577Z,3.53
2019-03-10T15:19:39.815Z,2.03
2019-03-10T15:22:11.168Z,3.33
2019-03-10T15:24:42.507Z,4.13
2019-03-10T15:27:22.970Z,3.67
2019-03-10T15:29:46.862Z,2.53
2019-03-10T15:32:18.168Z,2.60
2019-03-10T15:34:49.468Z,2.47
2019-03-10T15:37:20.779Z,2.40
2019-03-10T15:39:52.114Z,2.73
2019-03-10T15:42:23.420Z,3.47
2019-03-10T15:44:54.701Z,2.13
2019-03-10T15:47:26.049Z,2.40
2019-03-10T15:49:57.324Z,3.40
2019-03-10T15:52:28.620Z,1.17
2019-03-10T15:54:59.876Z,2.53
2019-03-10T15:57:31.216Z,2.13
2019-03-10T16:00:02.495Z,2.40
2019-03-10T16:02:33.862Z,2.60
2019-03-10T16:05:05.239Z,1.47
2019-03-10T16:07:36.529Z,3.77
2019-03-10T16:10:08.434Z,0.77
2019-03-10T16:12:39.732Z,1.70
2019-03-10T16:15:13.973Z,0.77
2019-03-10T16:17:46.015Z,1.63
2019-03-10T16:20:17.589Z,0.83
2019-03-10T16:22:48.926Z,0.60
2019-03-10T16:25:20.243Z,0.50
2019-03-10T16:27:51.615Z,0.50
2019-03-10T16:30:22.935Z,0.40
2019-03-10T16:32:54.588Z,0.93
2019-03-10T16:35:25.892Z,0.30
2019-03-10T16:37:57.208Z,0.20
2019-03-10T16:40:28.530Z,1.17
2019-03-10T16:42:59.845Z,0.27
2019-03-10T16:45:31.172Z,0.20
2019-03-10T16:48:02.469Z,0.30
2019-03-10T16:50:33.768Z,1.30
2019-03-10T16:53:05.069Z,0.50
2019-03-10T16:55:36.468Z,0.93
2019-03-10T16:58:07.739Z,1.17
2019-03-10T17:00:39.143Z,0.67
2019-03-10T17:03:10.457Z,0.30
2019-03-10T17:05:41.738Z,0.80
2019-03-10T17:08:13.052Z,0.70
2019-03-10T17:10:44.352Z,1.20
2019-03-10T17:13:15.699Z,0.80
2019-03-10T17:15:47.030Z,1.07
2019-03-10T17:18:18.678Z,1.00
2019-03-10T17:20:50.131Z,0.97
2019-03-10T17:23:24.547Z,0.90
2019-03-10T17:25:55.845Z,0.80
2019-03-10T17:28:27.155Z,0.80
2019-03-10T17:30:58.463Z,1.20
2019-03-10T17:33:29.769Z,1.00
2019-03-10T17:36:01.110Z,1.30
2019-03-10T17:38:32.533Z,0.87
2019-03-10T17:41:03.867Z,1.30
2019-03-10T17:43:35.233Z,1.00
2019-03-10T17:46:08.058Z,1.20
2019-03-10T17:48:39.394Z,1.20
2019-03-10T17:51:10.672Z,1.10
2019-03-10T17:53:42.203Z,1.30
2019-03-10T17:56:13.506Z,1.47
2019-03-10T17:58:44.846Z,1.30
2019-03-10T18:01:16.065Z,1.50
2019-03-10T18:03:47.374Z,1.70
2019-03-10T18:06:18.679Z,1.97
2019-03-10T18:08:49.958Z,1.90
2019-03-10T18:11:22.314Z,1.90
2019-03-10T18:13:53.726Z,2.30
2019-03-10T18:16:25.023Z,2.10
2019-03-10T18:18:56.309Z,2.20
2019-03-10T18:21:27.638Z,2.77
2019-03-10T18:23:58.926Z,2.10
2019-03-10T18:26:30.192Z,2.40
2019-03-10T18:29:01.490Z,2.60
2019-03-10T18:31:32.765Z,2.60
2019-03-10T18:34:04.072Z,3.00
2019-03-10T18:36:35.354Z,3.27
2019-03-10T18:39:08.862Z,3.27
2019-03-10T18:41:40.172Z,3.43
2019-03-10T18:44:11.502Z,5.07
2019-03-10T18:46:42.828Z,3.10
2019-03-10T18:49:14.116Z,4.10
2019-03-10T18:51:45.542Z,3.07
2019-03-10T18:54:16.916Z,2.67
2019-03-10T18:56:48.220Z,2.97
2019-03-10T18:59:19.493Z,3.10
2019-03-10T19:01:50.781Z,3.37
2019-03-10T19:04:22.132Z,1.97
2019-03-10T19:06:53.408Z,1.70
2019-03-10T19:09:25.994Z,1.70
2019-03-10T19:11:57.265Z,1.60
2019-03-10T19:14:28.564Z,1.80
2019-03-10T19:16:59.959Z,1.80
2019-03-10T19:19:32.106Z,2.37
2019-03-10T19:22:03.509Z,1.93
2019-03-10T19:24:34.784Z,2.23
2019-03-10T19:27:06.081Z,2.77
2019-03-10T19:29:37.363Z,1.93
2019-03-10T19:32:08.645Z,1.60
2019-03-10T19:34:39.915Z,1.60
2019-03-10T19:37:11.234Z,1.50
2019-03-10T19:39:42.528Z,1.40
2019-03-10T19:42:13.837Z,1.47
2019-03-10T19:44:45.139Z,1.07
2019-03-10T19:47:16.436Z,0.87
2019-03-10T19:49:47.782Z,0.87
2019-03-10T19:52:19.243Z,1.17
2019-03-10T19:54:50.534Z,0.70
2019-03-10T19:57:21.843Z,1.20
2019-03-10T19:59:53.115Z,0.53
2019-03-10T20:02:24.445Z,0.67
2019-03-10T20:04:55.732Z,0.90
2019-03-10T20:07:27.056Z,1.23
2019-03-10T20:09:58.526Z,1.17
2019-03-10T20:12:29.981Z,1.03
2019-03-10T20:15:01.369Z,1.00
2019-03-10T20:17:32.654Z,2.03
2019-03-10T20:20:04.204Z,2.60
2019-03-10T20:22:35.489Z,1.70
2019-03-10T20:25:06.986Z,3.70
2019-03-10T20:27:38.353Z,1.97
2019-03-10T20:30:12.736Z,2.33
2019-03-10T20:32:44.105Z,2.13
2019-03-10T20:35:15.570Z,2.37
2019-03-10T20:37:46.927Z,3.37
2019-03-10T20:40:18.526Z,1.17
2019-03-10T20:42:49.858Z,0.80
2019-03-10T20:45:21.269Z,1.17
2019-03-10T20:47:52.648Z,1.03
2019-03-10T20:50:24.020Z,0.83
2019-03-10T20:52:55.367Z,2.60
2019-03-10T20:55:26.626Z,0.97
2019-03-10T20:57:58.014Z,1.10
2019-03-10T21:00:29.313Z,1.30
2019-03-10T21:03:00.650Z,0.87
2019-03-10T21:05:31.989Z,0.83
2019-03-10T21:08:03.511Z,1.40
2019-03-10T21:10:34.863Z,1.17
2019-03-10T21:13:06.225Z,2.03
2019-03-10T21:15:37.494Z,1.17
2019-03-10T21:18:08.867Z,0.80
2019-03-10T21:20:40.232Z,1.87
2019-03-10T21:23:11.623Z,1.93
2019-03-10T21:25:43.410Z,3.43
2019-03-10T21:28:15.290Z,4.27
2019-03-10T21:30:46.649Z,2.43
2019-03-10T21:33:22.401Z,3.73
2019-03-10T21:35:53.742Z,2.33
2019-03-10T21:38:25.107Z,1.80
2019-03-10T21:40:57.335Z,3.77
2019-03-10T21:43:32.320Z,2.07
2019-03-10T21:46:03.623Z,4.70
2019-03-10T21:48:34.965Z,2.87
2019-03-10T21:51:06.263Z,2.83
2019-03-10T21:53:37.583Z,5.73
2019-03-10T21:56:08.943Z,5.37
2019-03-10T21:58:40.252Z,4.60
2019-03-10T22:01:11.591Z,6.00
2019-03-10T22:03:46.243Z,3.10
2019-03-10T22:06:17.640Z,3.77
2019-03-10T22:08:48.943Z,3.27
2019-03-10T22:11:20.255Z,4.57
2019-03-10T22:13:51.519Z,4.13
2019-03-10T22:16:22.865Z,4.07
2019-03-10T22:18:54.180Z,2.97
2019-03-10T22:21:25.568Z,3.60
2019-03-10T22:23:59.497Z,3.53
2019-03-10T22:26:29.979Z,2.00
2019-03-10T22:29:01.315Z,2.77
2019-03-10T22:31:32.646Z,3.87
2019-03-10T22:34:03.931Z,2.03
2019-03-10T22:36:35.179Z,2.30
2019-03-10T22:39:08.049Z,6.53
2019-03-10T22:41:39.354Z,4.67
2019-03-10T22:44:10.644Z,2.73
2019-03-10T22:46:41.986Z,3.90
2019-03-10T22:49:13.288Z,1.97
2019-03-10T22:51:44.593Z,2.10
2019-03-10T22:54:15.865Z,5.37
2019-03-10T22:56:47.174Z,3.57
2019-03-10T22:59:18.446Z,4.00
2019-03-10T23:01:49.727Z,3.50
2019-03-10T23:04:21.051Z,4.40
2019-03-10T23:06:52.309Z,5.60
2019-03-10T23:09:23.639Z,4.43
2019-03-10T23:11:54.919Z,4.07
2019-03-10T23:14:26.227Z,3.47
2019-03-10T23:16:57.481Z,2.50
2019-03-10T23:19:28.749Z,4.53
2019-03-10T23:22:00.083Z,5.30
2019-03-10T23:24:31.347Z,13.07
2019-03-10T23:27:02.671Z,3.70
2019-03-10T23:29:33.983Z,3.50
2019-03-10T23:32:05.267Z,5.40
2019-03-10T23:34:36.549Z,4.60
2019-03-10T23:37:07.867Z,7.37
2019-03-10T23:39:39.146Z,1.90
2019-03-10T23:42:10.439Z,4.47
2019-03-10T23:44:41.778Z,7.70
2019-03-10T23:47:13.094Z,6.10
2019-03-10T23:49:44.382Z,3.07
2019-03-10T23:52:15.694Z,5.23
2019-03-10T23:54:46.984Z,5.03
2019-03-10T23:57:18.307Z,4.03
2019-03-10T23:59:49.604Z,2.43
